sensor_id;sensor_type;location;lat;lon;timestamp;P1;durP1;ratioP1;P2;durP2;ratioP2
41255;SDS011;26989;45.524;10.938;2022-12-18T00:01:39;32.15;;;20.02;;
41255;SDS011;26989;45.524;10.938;2022-12-18T00:04:11;31.70;;;20.90;;
41255;SDS011;26989;45.524;10.938;2022-12-18T00:06:45;30.38;;;19.20;;
41255;SDS011;26989;45.524;10.938;2022-12-18T00:09:13;31.80;;;19.75;;
41255;SDS011;26989;45.524;10.938;2022-12-18T00:11:44;29.17;;;19.77;;
41255;SDS011;26989;45.524;10.938;2022-12-18T00:14:12;28.60;;;20.42;;
41255;SDS011;26989;45.524;10.938;2022-12-18T00:16:44;31.50;;;20.27;;
41255;SDS011;26989;45.524;10.938;2022-12-18T00:19:12;31.98;;;19.42;;
41255;SDS011;26989;45.524;10.938;2022-12-18T00:21:40;28.45;;;18.00;;
41255;SDS011;26989;45.524;10.938;2022-12-18T00:24:08;29.45;;;18.95;;
41255;SDS011;26989;45.524;10.938;2022-12-18T00:26:36;29.27;;;20.48;;
41255;SDS011;26989;45.524;10.938;2022-12-18T00:29:06;31.38;;;19.92;;
41255;SDS011;26989;45.524;10.938;2022-12-18T00:31:37;30.60;;;20.70;;
41255;SDS011;26989;45.524;10.938;2022-12-18T00:34:04;29.58;;;19.45;;
41255;SDS011;26989;45.524;10.938;2022-12-18T00:36:32;28.63;;;18.65;;
41255;SDS011;26989;45.524;10.938;2022-12-18T00:39:02;28.80;;;18.95;;
41255;SDS011;26989;45.524;10.938;2022-12-18T00:41:30;27.38;;;18.63;;
41255;SDS011;26989;45.524;10.938;2022-12-18T00:44:16;31.05;;;19.60;;
41255;SDS011;26989;45.524;10.938;2022-12-18T00:46:44;28.85;;;19.85;;
41255;SDS011;26989;45.524;10.938;2022-12-18T00:49:13;28.45;;;19.23;;
41255;SDS011;26989;45.524;10.938;2022-12-18T00:51:45;30.05;;;19.88;;
41255;SDS011;26989;45.524;10.938;2022-12-18T00:54:15;32.42;;;21.95;;
41255;SDS011;26989;45.524;10.938;2022-12-18T00:56:42;33.30;;;21.10;;
41255;SDS011;26989;45.524;10.938;2022-12-18T00:59:15;34.38;;;21.85;;
41255;SDS011;26989;45.524;10.938;2022-12-18T01:01:45;40.42;;;24.58;;
41255;SDS011;26989;45.524;10.938;2022-12-18T01:04:13;37.20;;;23.52;;
41255;SDS011;26989;45.524;10.938;2022-12-18T01:06:40;33.17;;;20.20;;
41255;SDS011;26989;45.524;10.938;2022-12-18T01:09:07;30.55;;;20.20;;
41255;SDS011;26989;45.524;10.938;2022-12-18T01:11:34;27.15;;;18.52;;
41255;SDS011;26989;45.524;10.938;2022-12-18T01:14:01;29.05;;;19.13;;
41255;SDS011;26989;45.524;10.938;2022-12-18T01:16:28;27.33;;;17.50;;
41255;SDS011;26989;45.524;10.938;2022-12-18T01:18:55;24.70;;;16.38;;
41255;SDS011;26989;45.524;10.938;2022-12-18T01:21:22;23.80;;;16.92;;
41255;SDS011;26989;45.524;10.938;2022-12-18T01:23:51;23.77;;;16.70;;
41255;SDS011;26989;45.524;10.938;2022-12-18T01:26:21;24.92;;;17.63;;
41255;SDS011;26989;45.524;10.938;2022-12-18T01:28:48;25.42;;;17.73;;
41255;SDS011;26989;45.524;10.938;2022-12-18T01:33:53;28.42;;;18.85;;
41255;SDS011;26989;45.524;10.938;2022-12-18T01:36:30;31.70;;;21.25;;
41255;SDS011;26989;45.524;10.938;2022-12-18T01:39:00;29.90;;;20.45;;
41255;SDS011;26989;45.524;10.938;2022-12-18T01:41:30;24.75;;;17.90;;
41255;SDS011;26989;45.524;10.938;2022-12-18T01:47:28;26.10;;;17.67;;
41255;SDS011;26989;45.524;10.938;2022-12-18T01:52:47;27.58;;;20.00;;
41255;SDS011;26989;45.524;10.938;2022-12-18T01:55:20;29.20;;;19.88;;
41255;SDS011;26989;45.524;10.938;2022-12-18T01:57:52;28.15;;;19.27;;
41255;SDS011;26989;45.524;10.938;2022-12-18T02:00:21;31.88;;;21.75;;
41255;SDS011;26989;45.524;10.938;2022-12-18T02:02:49;31.13;;;21.08;;
41255;SDS011;26989;45.524;10.938;2022-12-18T02:16:29;28.25;;;19.35;;
41255;SDS011;26989;45.524;10.938;2022-12-18T02:19:11;28.20;;;19.90;;
41255;SDS011;26989;45.524;10.938;2022-12-18T02:27:22;32.08;;;22.15;;
41255;SDS011;26989;45.524;10.938;2022-12-18T02:29:52;30.80;;;21.52;;
41255;SDS011;26989;45.524;10.938;2022-12-18T02:32:25;30.33;;;21.38;;
41255;SDS011;26989;45.524;10.938;2022-12-18T02:34:55;33.75;;;21.08;;
41255;SDS011;26989;45.524;10.938;2022-12-18T02:37:25;31.20;;;21.38;;
41255;SDS011;26989;45.524;10.938;2022-12-18T02:39:55;30.60;;;20.42;;
41255;SDS011;26989;45.524;10.938;2022-12-18T02:42:24;40.15;;;25.00;;
41255;SDS011;26989;45.524;10.938;2022-12-18T02:44:54;34.72;;;22.58;;
41255;SDS011;26989;45.524;10.938;2022-12-18T02:47:22;31.92;;;19.23;;
41255;SDS011;26989;45.524;10.938;2022-12-18T02:58:28;27.17;;;18.77;;
41255;SDS011;26989;45.524;10.938;2022-12-18T03:03:50;25.17;;;17.08;;
41255;SDS011;26989;45.524;10.938;2022-12-18T03:06:43;24.73;;;17.77;;
41255;SDS011;26989;45.524;10.938;2022-12-18T03:09:13;23.85;;;16.02;;
41255;SDS011;26989;45.524;10.938;2022-12-18T03:11:53;21.67;;;16.25;;
41255;SDS011;26989;45.524;10.938;2022-12-18T03:17:13;22.90;;;15.23;;
41255;SDS011;26989;45.524;10.938;2022-12-18T03:19:44;23.42;;;15.57;;
41255;SDS011;26989;45.524;10.938;2022-12-18T03:22:13;24.55;;;16.35;;
41255;SDS011;26989;45.524;10.938;2022-12-18T03:24:43;28.55;;;17.23;;
41255;SDS011;26989;45.524;10.938;2022-12-18T03:27:12;22.95;;;15.60;;
41255;SDS011;26989;45.524;10.938;2022-12-18T03:29:44;26.13;;;17.35;;
41255;SDS011;26989;45.524;10.938;2022-12-18T03:32:24;25.80;;;16.42;;
41255;SDS011;26989;45.524;10.938;2022-12-18T03:34:55;26.15;;;18.25;;
41255;SDS011;26989;45.524;10.938;2022-12-18T03:37:25;27.65;;;17.42;;
41255;SDS011;26989;45.524;10.938;2022-12-18T03:39:53;24.73;;;18.40;;
41255;SDS011;26989;45.524;10.938;2022-12-18T03:42:30;26.48;;;17.58;;
41255;SDS011;26989;45.524;10.938;2022-12-18T03:47:31;25.77;;;16.65;;
41255;SDS011;26989;45.524;10.938;2022-12-18T03:50:20;23.17;;;17.10;;
41255;SDS011;26989;45.524;10.938;2022-12-18T03:55:48;25.65;;;17.65;;
41255;SDS011;26989;45.524;10.938;2022-12-18T03:58:19;27.80;;;17.00;;
41255;SDS011;26989;45.524;10.938;2022-12-18T04:00:49;21.20;;;15.82;;
41255;SDS011;26989;45.524;10.938;2022-12-18T04:03:18;24.50;;;17.00;;
41255;SDS011;26989;45.524;10.938;2022-12-18T04:05:53;22.92;;;16.35;;
41255;SDS011;26989;45.524;10.938;2022-12-18T04:08:21;23.40;;;15.50;;
41255;SDS011;26989;45.524;10.938;2022-12-18T04:10:49;25.42;;;16.52;;
41255;SDS011;26989;45.524;10.938;2022-12-18T04:13:23;21.98;;;16.20;;
41255;SDS011;26989;45.524;10.938;2022-12-18T04:15:53;22.20;;;16.38;;
41255;SDS011;26989;45.524;10.938;2022-12-18T04:18:20;20.23;;;15.88;;
41255;SDS011;26989;45.524;10.938;2022-12-18T04:20:47;22.05;;;15.63;;
41255;SDS011;26989;45.524;10.938;2022-12-18T04:23:14;24.17;;;14.55;;
41255;SDS011;26989;45.524;10.938;2022-12-18T04:25:41;22.27;;;16.00;;
41255;SDS011;26989;45.524;10.938;2022-12-18T04:28:08;24.90;;;15.93;;
41255;SDS011;26989;45.524;10.938;2022-12-18T04:30:34;22.35;;;15.38;;
41255;SDS011;26989;45.524;10.938;2022-12-18T04:33:01;23.85;;;15.75;;
41255;SDS011;26989;45.524;10.938;2022-12-18T04:35:28;22.85;;;15.48;;
41255;SDS011;26989;45.524;10.938;2022-12-18T04:37:56;20.40;;;14.93;;
41255;SDS011;26989;45.524;10.938;2022-12-18T04:40:23;20.33;;;13.73;;
41255;SDS011;26989;45.524;10.938;2022-12-18T04:42:50;23.63;;;15.43;;
41255;SDS011;26989;45.524;10.938;2022-12-18T04:45:17;21.05;;;14.85;;
41255;SDS011;26989;45.524;10.938;2022-12-18T04:47:44;21.40;;;14.23;;
41255;SDS011;26989;45.524;10.938;2022-12-18T04:50:11;22.92;;;15.00;;
41255;SDS011;26989;45.524;10.938;2022-12-18T04:52:37;22.33;;;13.85;;
41255;SDS011;26989;45.524;10.938;2022-12-18T04:55:05;19.30;;;13.85;;
41255;SDS011;26989;45.524;10.938;2022-12-18T04:57:32;20.80;;;13.13;;
41255;SDS011;26989;45.524;10.938;2022-12-18T04:59:59;18.73;;;13.27;;
41255;SDS011;26989;45.524;10.938;2022-12-18T05:02:26;20.80;;;12.88;;
41255;SDS011;26989;45.524;10.938;2022-12-18T05:04:53;20.00;;;12.60;;
41255;SDS011;26989;45.524;10.938;2022-12-18T05:07:20;19.13;;;13.35;;
41255;SDS011;26989;45.524;10.938;2022-12-18T05:09:47;24.30;;;14.80;;
41255;SDS011;26989;45.524;10.938;2022-12-18T05:12:14;20.48;;;13.45;;
41255;SDS011;26989;45.524;10.938;2022-12-18T05:14:41;19.80;;;13.57;;
41255;SDS011;26989;45.524;10.938;2022-12-18T05:17:08;22.65;;;13.85;;
41255;SDS011;26989;45.524;10.938;2022-12-18T05:19:35;19.50;;;13.02;;
41255;SDS011;26989;45.524;10.938;2022-12-18T05:22:02;18.58;;;12.60;;
41255;SDS011;26989;45.524;10.938;2022-12-18T05:24:29;17.88;;;13.00;;
41255;SDS011;26989;45.524;10.938;2022-12-18T05:26:56;17.30;;;13.32;;
41255;SDS011;26989;45.524;10.938;2022-12-18T05:29:22;17.67;;;13.30;;
41255;SDS011;26989;45.524;10.938;2022-12-18T05:31:50;18.45;;;13.43;;
41255;SDS011;26989;45.524;10.938;2022-12-18T05:34:17;19.17;;;13.93;;
41255;SDS011;26989;45.524;10.938;2022-12-18T05:36:44;17.85;;;13.20;;
41255;SDS011;26989;45.524;10.938;2022-12-18T05:39:11;18.73;;;13.65;;
41255;SDS011;26989;45.524;10.938;2022-12-18T05:41:37;19.75;;;13.52;;
41255;SDS011;26989;45.524;10.938;2022-12-18T05:44:04;19.60;;;12.80;;
41255;SDS011;26989;45.524;10.938;2022-12-18T05:46:31;20.90;;;14.30;;
41255;SDS011;26989;45.524;10.938;2022-12-18T05:48:59;18.83;;;13.60;;
41255;SDS011;26989;45.524;10.938;2022-12-18T05:51:27;20.85;;;14.43;;
41255;SDS011;26989;45.524;10.938;2022-12-18T05:53:54;18.98;;;14.65;;
41255;SDS011;26989;45.524;10.938;2022-12-18T05:56:21;23.30;;;15.73;;
41255;SDS011;26989;45.524;10.938;2022-12-18T05:58:52;19.98;;;15.13;;
41255;SDS011;26989;45.524;10.938;2022-12-18T06:01:21;21.40;;;14.83;;
41255;SDS011;26989;45.524;10.938;2022-12-18T06:03:51;22.38;;;15.00;;
41255;SDS011;26989;45.524;10.938;2022-12-18T06:06:19;22.05;;;14.95;;
41255;SDS011;26989;45.524;10.938;2022-12-18T06:08:49;20.33;;;15.40;;
41255;SDS011;26989;45.524;10.938;2022-12-18T06:11:18;21.27;;;14.40;;
41255;SDS011;26989;45.524;10.938;2022-12-18T06:13:51;21.33;;;14.88;;
41255;SDS011;26989;45.524;10.938;2022-12-18T06:16:24;21.85;;;16.15;;
41255;SDS011;26989;45.524;10.938;2022-12-18T06:18:52;22.20;;;16.33;;
41255;SDS011;26989;45.524;10.938;2022-12-18T06:21:19;23.35;;;16.17;;
41255;SDS011;26989;45.524;10.938;2022-12-18T06:23:46;23.52;;;16.10;;
41255;SDS011;26989;45.524;10.938;2022-12-18T06:26:13;24.50;;;16.65;;
41255;SDS011;26989;45.524;10.938;2022-12-18T06:28:41;24.08;;;16.52;;
41255;SDS011;26989;45.524;10.938;2022-12-18T06:31:08;23.10;;;17.10;;
41255;SDS011;26989;45.524;10.938;2022-12-18T06:33:36;26.05;;;17.05;;
41255;SDS011;26989;45.524;10.938;2022-12-18T06:36:05;22.83;;;16.60;;
41255;SDS011;26989;45.524;10.938;2022-12-18T06:38:38;21.55;;;15.90;;
41255;SDS011;26989;45.524;10.938;2022-12-18T06:41:09;24.42;;;16.38;;
41255;SDS011;26989;45.524;10.938;2022-12-18T06:43:37;23.05;;;16.17;;
41255;SDS011;26989;45.524;10.938;2022-12-18T06:46:05;24.20;;;16.45;;
41255;SDS011;26989;45.524;10.938;2022-12-18T06:48:32;26.48;;;16.75;;
41255;SDS011;26989;45.524;10.938;2022-12-18T06:50:59;22.73;;;16.98;;
41255;SDS011;26989;45.524;10.938;2022-12-18T06:53:31;22.30;;;15.70;;
41255;SDS011;26989;45.524;10.938;2022-12-18T06:55:59;16.67;;;12.23;;
41255;SDS011;26989;45.524;10.938;2022-12-18T06:58:34;16.20;;;12.10;;
41255;SDS011;26989;45.524;10.938;2022-12-18T07:01:04;17.48;;;11.25;;
41255;SDS011;26989;45.524;10.938;2022-12-18T07:03:46;17.23;;;11.20;;
41255;SDS011;26989;45.524;10.938;2022-12-18T07:06:18;17.70;;;11.38;;
41255;SDS011;26989;45.524;10.938;2022-12-18T07:08:46;14.68;;;11.07;;
41255;SDS011;26989;45.524;10.938;2022-12-18T07:11:14;13.35;;;9.95;;
41255;SDS011;26989;45.524;10.938;2022-12-18T07:13:45;19.98;;;14.27;;
41255;SDS011;26989;45.524;10.938;2022-12-18T07:16:14;17.50;;;13.18;;
41255;SDS011;26989;45.524;10.938;2022-12-18T07:18:50;19.80;;;14.50;;
41255;SDS011;26989;45.524;10.938;2022-12-18T07:21:18;19.05;;;14.13;;
41255;SDS011;26989;45.524;10.938;2022-12-18T07:23:47;16.65;;;12.65;;
41255;SDS011;26989;45.524;10.938;2022-12-18T07:26:16;21.35;;;13.02;;
41255;SDS011;26989;45.524;10.938;2022-12-18T07:28:45;15.00;;;11.45;;
41255;SDS011;26989;45.524;10.938;2022-12-18T07:31:13;16.23;;;11.55;;
41255;SDS011;26989;45.524;10.938;2022-12-18T07:33:43;15.00;;;10.68;;
41255;SDS011;26989;45.524;10.938;2022-12-18T07:36:25;14.77;;;9.70;;
41255;SDS011;26989;45.524;10.938;2022-12-18T07:38:52;13.95;;;9.77;;
41255;SDS011;26989;45.524;10.938;2022-12-18T07:41:19;16.10;;;10.30;;
41255;SDS011;26989;45.524;10.938;2022-12-18T07:43:47;14.80;;;10.35;;
41255;SDS011;26989;45.524;10.938;2022-12-18T07:46:14;18.10;;;11.07;;
41255;SDS011;26989;45.524;10.938;2022-12-18T07:48:42;14.65;;;11.05;;
41255;SDS011;26989;45.524;10.938;2022-12-18T07:51:16;19.45;;;10.77;;
41255;SDS011;26989;45.524;10.938;2022-12-18T07:53:44;19.95;;;13.50;;
41255;SDS011;26989;45.524;10.938;2022-12-18T07:56:11;17.05;;;12.10;;
41255;SDS011;26989;45.524;10.938;2022-12-18T07:58:57;33.88;;;23.58;;
41255;SDS011;26989;45.524;10.938;2022-12-18T08:01:25;40.63;;;27.83;;
41255;SDS011;26989;45.524;10.938;2022-12-18T08:03:52;40.53;;;27.50;;
41255;SDS011;26989;45.524;10.938;2022-12-18T08:06:33;42.55;;;27.05;;
41255;SDS011;26989;45.524;10.938;2022-12-18T08:09:01;25.65;;;17.45;;
41255;SDS011;26989;45.524;10.938;2022-12-18T08:11:28;24.90;;;17.52;;
41255;SDS011;26989;45.524;10.938;2022-12-18T08:13:56;24.35;;;17.90;;
41255;SDS011;26989;45.524;10.938;2022-12-18T08:16:30;19.65;;;14.52;;
41255;SDS011;26989;45.524;10.938;2022-12-18T08:19:01;19.52;;;13.45;;
41255;SDS011;26989;45.524;10.938;2022-12-18T08:21:30;19.48;;;13.95;;
41255;SDS011;26989;45.524;10.938;2022-12-18T08:23:58;19.88;;;14.15;;
41255;SDS011;26989;45.524;10.938;2022-12-18T08:26:29;20.38;;;14.75;;
41255;SDS011;26989;45.524;10.938;2022-12-18T08:28:57;22.95;;;14.32;;
41255;SDS011;26989;45.524;10.938;2022-12-18T08:31:26;19.35;;;14.30;;
41255;SDS011;26989;45.524;10.938;2022-12-18T08:33:54;20.10;;;13.38;;
41255;SDS011;26989;45.524;10.938;2022-12-18T08:36:22;16.95;;;11.95;;
41255;SDS011;26989;45.524;10.938;2022-12-18T08:38:51;14.63;;;11.30;;
41255;SDS011;26989;45.524;10.938;2022-12-18T08:41:18;14.30;;;10.63;;
41255;SDS011;26989;45.524;10.938;2022-12-18T08:43:46;14.32;;;10.30;;
41255;SDS011;26989;45.524;10.938;2022-12-18T08:46:38;15.25;;;9.75;;
41255;SDS011;26989;45.524;10.938;2022-12-18T08:49:10;15.02;;;10.43;;
41255;SDS011;26989;45.524;10.938;2022-12-18T08:51:38;20.50;;;16.13;;
41255;SDS011;26989;45.524;10.938;2022-12-18T08:54:13;15.38;;;11.75;;
41255;SDS011;26989;45.524;10.938;2022-12-18T08:56:42;12.90;;;8.95;;
41255;SDS011;26989;45.524;10.938;2022-12-18T08:59:09;12.57;;;8.38;;
41255;SDS011;26989;45.524;10.938;2022-12-18T09:01:44;13.88;;;9.30;;
41255;SDS011;26989;45.524;10.938;2022-12-18T09:04:12;13.63;;;9.90;;
41255;SDS011;26989;45.524;10.938;2022-12-18T09:06:40;13.23;;;9.05;;
41255;SDS011;26989;45.524;10.938;2022-12-18T09:09:10;12.68;;;8.65;;
41255;SDS011;26989;45.524;10.938;2022-12-18T09:11:37;13.68;;;8.98;;
41255;SDS011;26989;45.524;10.938;2022-12-18T09:14:06;12.60;;;9.63;;
41255;SDS011;26989;45.524;10.938;2022-12-18T09:16:33;14.25;;;9.05;;
41255;SDS011;26989;45.524;10.938;2022-12-18T09:19:02;12.63;;;9.70;;
41255;SDS011;26989;45.524;10.938;2022-12-18T09:21:32;13.50;;;10.80;;
41255;SDS011;26989;45.524;10.938;2022-12-18T09:24:13;14.07;;;9.88;;
41255;SDS011;26989;45.524;10.938;2022-12-18T09:26:42;13.70;;;10.02;;
41255;SDS011;26989;45.524;10.938;2022-12-18T09:29:12;15.73;;;11.10;;
41255;SDS011;26989;45.524;10.938;2022-12-18T09:31:42;11.75;;;9.20;;
41255;SDS011;26989;45.524;10.938;2022-12-18T09:34:12;12.50;;;10.05;;
41255;SDS011;26989;45.524;10.938;2022-12-18T09:36:39;12.60;;;9.68;;
41255;SDS011;26989;45.524;10.938;2022-12-18T09:42:02;15.13;;;9.73;;
41255;SDS011;26989;45.524;10.938;2022-12-18T09:44:40;13.05;;;10.00;;
41255;SDS011;26989;45.524;10.938;2022-12-18T09:49:45;14.18;;;10.77;;
41255;SDS011;26989;45.524;10.938;2022-12-18T09:52:26;18.38;;;11.68;;
41255;SDS011;26989;45.524;10.938;2022-12-18T09:55:16;15.85;;;11.10;;
41255;SDS011;26989;45.524;10.938;2022-12-18T09:58:00;14.80;;;11.52;;
41255;SDS011;26989;45.524;10.938;2022-12-18T10:01:06;25.63;;;12.23;;
41255;SDS011;26989;45.524;10.938;2022-12-18T10:03:38;14.43;;;10.70;;
41255;SDS011;26989;45.524;10.938;2022-12-18T10:06:10;15.20;;;11.60;;
41255;SDS011;26989;45.524;10.938;2022-12-18T10:12:18;15.52;;;11.52;;
41255;SDS011;26989;45.524;10.938;2022-12-18T10:18:26;21.00;;;13.13;;
41255;SDS011;26989;45.524;10.938;2022-12-18T10:21:18;17.63;;;13.05;;
41255;SDS011;26989;45.524;10.938;2022-12-18T10:27:17;20.15;;;12.48;;
41255;SDS011;26989;45.524;10.938;2022-12-18T10:29:58;19.38;;;12.73;;
41255;SDS011;26989;45.524;10.938;2022-12-18T10:32:29;16.75;;;12.68;;
41255;SDS011;26989;45.524;10.938;2022-12-18T10:34:57;18.50;;;13.18;;
41255;SDS011;26989;45.524;10.938;2022-12-18T10:37:58;18.95;;;12.50;;
41255;SDS011;26989;45.524;10.938;2022-12-18T10:43:38;18.95;;;13.25;;
41255;SDS011;26989;45.524;10.938;2022-12-18T10:46:19;16.67;;;13.23;;
41255;SDS011;26989;45.524;10.938;2022-12-18T10:49:18;21.65;;;13.80;;
41255;SDS011;26989;45.524;10.938;2022-12-18T10:51:48;18.48;;;13.98;;
41255;SDS011;26989;45.524;10.938;2022-12-18T10:57:45;18.70;;;13.93;;
41255;SDS011;26989;45.524;10.938;2022-12-18T11:00:27;19.35;;;14.30;;
41255;SDS011;26989;45.524;10.938;2022-12-18T11:03:35;20.05;;;14.18;;
41255;SDS011;26989;45.524;10.938;2022-12-18T11:06:36;18.92;;;14.18;;
41255;SDS011;26989;45.524;10.938;2022-12-18T11:09:40;16.50;;;13.40;;
41255;SDS011;26989;45.524;10.938;2022-12-18T11:12:18;22.13;;;14.05;;
41255;SDS011;26989;45.524;10.938;2022-12-18T11:15:03;19.15;;;13.60;;
41255;SDS011;26989;45.524;10.938;2022-12-18T11:17:49;20.30;;;14.48;;
41255;SDS011;26989;45.524;10.938;2022-12-18T11:20:40;16.50;;;13.85;;
41255;SDS011;26989;45.524;10.938;2022-12-18T11:23:23;16.63;;;13.10;;
41255;SDS011;26989;45.524;10.938;2022-12-18T11:26:04;22.52;;;13.38;;
41255;SDS011;26989;45.524;10.938;2022-12-18T11:29:07;20.13;;;13.70;;
41255;SDS011;26989;45.524;10.938;2022-12-18T11:32:51;19.65;;;14.30;;
41255;SDS011;26989;45.524;10.938;2022-12-18T11:35:25;20.73;;;14.25;;
41255;SDS011;26989;45.524;10.938;2022-12-18T11:38:31;23.13;;;14.55;;
41255;SDS011;26989;45.524;10.938;2022-12-18T11:41:05;17.58;;;13.27;;
41255;SDS011;26989;45.524;10.938;2022-12-18T11:43:58;21.08;;;13.52;;
41255;SDS011;26989;45.524;10.938;2022-12-18T11:46:52;23.02;;;14.73;;
41255;SDS011;26989;45.524;10.938;2022-12-18T11:49:35;19.20;;;13.70;;
41255;SDS011;26989;45.524;10.938;2022-12-18T11:52:07;19.83;;;13.23;;
41255;SDS011;26989;45.524;10.938;2022-12-18T11:54:58;21.67;;;14.80;;
41255;SDS011;26989;45.524;10.938;2022-12-18T11:57:36;24.73;;;14.93;;
41255;SDS011;26989;45.524;10.938;2022-12-18T12:29:20;25.20;;;15.75;;
41255;SDS011;26989;45.524;10.938;2022-12-18T12:39:06;22.63;;;15.60;;
41255;SDS011;26989;45.524;10.938;2022-12-18T12:41:52;19.27;;;14.30;;
41255;SDS011;26989;45.524;10.938;2022-12-18T12:44:57;22.40;;;14.93;;
41255;SDS011;26989;45.524;10.938;2022-12-18T12:47:32;19.33;;;13.88;;
41255;SDS011;26989;45.524;10.938;2022-12-18T12:50:13;18.67;;;13.95;;
41255;SDS011;26989;45.524;10.938;2022-12-18T12:52:46;20.27;;;14.10;;
41255;SDS011;26989;45.524;10.938;2022-12-18T13:09:42;16.60;;;12.88;;
41255;SDS011;26989;45.524;10.938;2022-12-18T13:13:06;16.63;;;12.60;;
41255;SDS011;26989;45.524;10.938;2022-12-18T13:16:07;20.20;;;12.45;;
41255;SDS011;26989;45.524;10.938;2022-12-18T13:18:51;19.20;;;13.25;;
41255;SDS011;26989;45.524;10.938;2022-12-18T13:21:34;18.50;;;12.30;;
41255;SDS011;26989;45.524;10.938;2022-12-18T13:24:30;17.13;;;12.38;;
41255;SDS011;26989;45.524;10.938;2022-12-18T13:32:48;17.60;;;11.70;;
41255;SDS011;26989;45.524;10.938;2022-12-18T13:38:23;19.13;;;12.55;;
41255;SDS011;26989;45.524;10.938;2022-12-18T13:41:24;17.70;;;11.77;;
41255;SDS011;26989;45.524;10.938;2022-12-18T13:47:02;10.98;;;8.05;;
41255;SDS011;26989;45.524;10.938;2022-12-18T13:49:44;9.82;;;7.13;;
41255;SDS011;26989;45.524;10.938;2022-12-18T13:52:24;10.80;;;7.63;;
41255;SDS011;26989;45.524;10.938;2022-12-18T13:55:14;12.98;;;7.30;;
41255;SDS011;26989;45.524;10.938;2022-12-18T13:58:05;9.35;;;7.00;;
41255;SDS011;26989;45.524;10.938;2022-12-18T14:00:33;11.27;;;7.68;;
41255;SDS011;26989;45.524;10.938;2022-12-18T14:03:00;10.85;;;7.78;;
41255;SDS011;26989;45.524;10.938;2022-12-18T14:08:02;9.80;;;7.07;;
41255;SDS011;26989;45.524;10.938;2022-12-18T14:10:42;10.25;;;7.40;;
41255;SDS011;26989;45.524;10.938;2022-12-18T14:13:23;13.32;;;8.27;;
41255;SDS011;26989;45.524;10.938;2022-12-18T14:16:11;26.63;;;11.65;;
41255;SDS011;26989;45.524;10.938;2022-12-18T14:18:56;26.63;;;12.57;;
41255;SDS011;26989;45.524;10.938;2022-12-18T14:21:38;20.73;;;9.52;;
41255;SDS011;26989;45.524;10.938;2022-12-18T14:24:16;14.95;;;8.75;;
41255;SDS011;26989;45.524;10.938;2022-12-18T14:26:48;13.40;;;7.55;;
41255;SDS011;26989;45.524;10.938;2022-12-18T14:29:24;12.15;;;8.25;;
41255;SDS011;26989;45.524;10.938;2022-12-18T14:32:06;10.88;;;7.78;;
41255;SDS011;26989;45.524;10.938;2022-12-18T14:34:47;15.75;;;9.00;;
41255;SDS011;26989;45.524;10.938;2022-12-18T14:37:21;13.90;;;9.05;;
41255;SDS011;26989;45.524;10.938;2022-12-18T14:40:11;12.93;;;7.80;;
41255;SDS011;26989;45.524;10.938;2022-12-18T14:42:41;9.57;;;7.78;;
41255;SDS011;26989;45.524;10.938;2022-12-18T14:48:16;12.90;;;7.50;;
41255;SDS011;26989;45.524;10.938;2022-12-18T14:50:59;10.80;;;7.85;;
41255;SDS011;26989;45.524;10.938;2022-12-18T14:53:34;11.10;;;7.35;;
41255;SDS011;26989;45.524;10.938;2022-12-18T14:56:24;11.85;;;7.80;;
41255;SDS011;26989;45.524;10.938;2022-12-18T14:59:15;12.60;;;8.85;;
41255;SDS011;26989;45.524;10.938;2022-12-18T15:01:58;13.75;;;8.27;;
41255;SDS011;26989;45.524;10.938;2022-12-18T15:04:34;11.18;;;8.05;;
41255;SDS011;26989;45.524;10.938;2022-12-18T15:09:43;12.00;;;8.55;;
41255;SDS011;26989;45.524;10.938;2022-12-18T15:12:28;17.08;;;10.48;;
41255;SDS011;26989;45.524;10.938;2022-12-18T15:15:04;30.63;;;15.30;;
41255;SDS011;26989;45.524;10.938;2022-12-18T15:17:58;72.95;;;26.45;;
41255;SDS011;26989;45.524;10.938;2022-12-18T15:20:38;32.60;;;15.23;;
41255;SDS011;26989;45.524;10.938;2022-12-18T15:23:33;23.42;;;13.70;;
41255;SDS011;26989;45.524;10.938;2022-12-18T15:26:13;25.02;;;12.55;;
41255;SDS011;26989;45.524;10.938;2022-12-18T15:28:53;25.35;;;13.65;;
41255;SDS011;26989;45.524;10.938;2022-12-18T15:31:28;32.85;;;16.67;;
41255;SDS011;26989;45.524;10.938;2022-12-18T15:36:31;25.45;;;16.55;;
41255;SDS011;26989;45.524;10.938;2022-12-18T15:39:03;28.80;;;16.98;;
41255;SDS011;26989;45.524;10.938;2022-12-18T15:41:33;23.52;;;14.35;;
41255;SDS011;26989;45.524;10.938;2022-12-18T15:44:02;23.20;;;15.02;;
41255;SDS011;26989;45.524;10.938;2022-12-18T15:46:53;20.75;;;13.43;;
41255;SDS011;26989;45.524;10.938;2022-12-18T15:49:30;20.90;;;13.57;;
41255;SDS011;26989;45.524;10.938;2022-12-18T15:51:58;23.30;;;14.80;;
41255;SDS011;26989;45.524;10.938;2022-12-18T15:54:32;22.13;;;14.80;;
41255;SDS011;26989;45.524;10.938;2022-12-18T15:57:22;29.95;;;15.32;;
41255;SDS011;26989;45.524;10.938;2022-12-18T15:59:50;27.55;;;15.00;;
41255;SDS011;26989;45.524;10.938;2022-12-18T16:02:19;20.48;;;12.32;;
41255;SDS011;26989;45.524;10.938;2022-12-18T16:04:49;22.73;;;14.40;;
41255;SDS011;26989;45.524;10.938;2022-12-18T16:07:18;27.08;;;14.85;;
41255;SDS011;26989;45.524;10.938;2022-12-18T16:09:50;26.92;;;14.55;;
41255;SDS011;26989;45.524;10.938;2022-12-18T16:12:21;28.30;;;15.20;;
41255;SDS011;26989;45.524;10.938;2022-12-18T16:14:50;24.80;;;15.30;;
41255;SDS011;26989;45.524;10.938;2022-12-18T16:17:17;23.65;;;15.82;;
41255;SDS011;26989;45.524;10.938;2022-12-18T16:19:49;20.38;;;11.88;;
41255;SDS011;26989;45.524;10.938;2022-12-18T16:22:23;19.30;;;13.30;;
41255;SDS011;26989;45.524;10.938;2022-12-18T16:24:53;20.85;;;13.65;;
41255;SDS011;26989;45.524;10.938;2022-12-18T16:27:21;20.50;;;12.73;;
41255;SDS011;26989;45.524;10.938;2022-12-18T16:29:49;23.73;;;14.57;;
41255;SDS011;26989;45.524;10.938;2022-12-18T16:32:18;23.85;;;13.82;;
41255;SDS011;26989;45.524;10.938;2022-12-18T16:34:46;25.02;;;15.82;;
41255;SDS011;26989;45.524;10.938;2022-12-18T16:37:14;27.60;;;16.55;;
41255;SDS011;26989;45.524;10.938;2022-12-18T16:39:44;28.33;;;15.73;;
41255;SDS011;26989;45.524;10.938;2022-12-18T16:42:13;23.33;;;12.95;;
41255;SDS011;26989;45.524;10.938;2022-12-18T16:44:45;23.63;;;13.65;;
41255;SDS011;26989;45.524;10.938;2022-12-18T16:47:13;23.25;;;13.52;;
41255;SDS011;26989;45.524;10.938;2022-12-18T16:49:41;22.58;;;14.63;;
41255;SDS011;26989;45.524;10.938;2022-12-18T16:52:11;28.63;;;19.08;;
41255;SDS011;26989;45.524;10.938;2022-12-18T16:54:38;32.35;;;20.63;;
41255;SDS011;26989;45.524;10.938;2022-12-18T16:57:05;28.23;;;18.83;;
41255;SDS011;26989;45.524;10.938;2022-12-18T16:59:33;31.33;;;19.08;;
41255;SDS011;26989;45.524;10.938;2022-12-18T17:02:05;18.98;;;12.05;;
41255;SDS011;26989;45.524;10.938;2022-12-18T17:04:38;26.77;;;18.48;;
41255;SDS011;26989;45.524;10.938;2022-12-18T17:07:05;29.25;;;19.60;;
41255;SDS011;26989;45.524;10.938;2022-12-18T17:09:33;32.00;;;18.88;;